sensor_id;sensor_type;location;lat;lon;timestamp;P1;durP1;ratioP1;P2;durP2;ratioP2
3274;SDS011;1649;53.672;10.064;2023-07-02T00:00:01;10.00;;;6.00;;
3274;SDS011;1649;53.672;10.064;2023-07-02T00:02:30;10.67;;;6.00;;
3274;SDS011;1649;53.672;10.064;2023-07-02T00:04:55;10.50;;;6.00;;
3274;SDS011;1649;53.672;10.064;2023-07-02T00:07:21;10.93;;;5.90;;
3274;SDS011;1649;53.672;10.064;2023-07-02T00:09:46;12.67;;;6.10;;
3274;SDS011;1649;53.672;10.064;2023-07-02T00:12:12;9.80;;;6.80;;
3274;SDS011;1649;53.672;10.064;2023-07-02T00:14:38;10.00;;;6.43;;
3274;SDS011;1649;53.672;10.064;2023-07-02T00:17:03;11.03;;;6.60;;
3274;SDS011;1649;53.672;10.064;2023-07-02T00:19:29;11.43;;;6.63;;
3274;SDS011;1649;53.672;10.064;2023-07-02T00:21:54;9.77;;;6.53;;
3274;SDS011;1649;53.672;10.064;2023-07-02T00:24:20;12.17;;;6.33;;
3274;SDS011;1649;53.672;10.064;2023-07-02T00:26:46;10.33;;;6.60;;
3274;SDS011;1649;53.672;10.064;2023-07-02T00:29:11;14.00;;;7.20;;
3274;SDS011;1649;53.672;10.064;2023-07-02T00:31:37;11.70;;;6.20;;
3274;SDS011;1649;53.672;10.064;2023-07-02T00:34:02;12.43;;;7.33;;
3274;SDS011;1649;53.672;10.064;2023-07-02T00:36:29;12.60;;;6.97;;
3274;SDS011;1649;53.672;10.064;2023-07-02T00:38:55;13.73;;;7.20;;
3274;SDS011;1649;53.672;10.064;2023-07-02T00:41:20;13.13;;;7.03;;
3274;SDS011;1649;53.672;10.064;2023-07-02T00:43:46;13.60;;;7.63;;
3274;SDS011;1649;53.672;10.064;2023-07-02T00:46:15;12.03;;;7.60;;
3274;SDS011;1649;53.672;10.064;2023-07-02T00:48:43;9.90;;;7.47;;
3274;SDS011;1649;53.672;10.064;2023-07-02T00:51:11;11.20;;;7.50;;
3274;SDS011;1649;53.672;10.064;2023-07-02T00:53:41;11.93;;;7.00;;
3274;SDS011;1649;53.672;10.064;2023-07-02T00:56:08;12.03;;;7.03;;
3274;SDS011;1649;53.672;10.064;2023-07-02T00:58:34;10.70;;;7.37;;
3274;SDS011;1649;53.672;10.064;2023-07-02T01:01:05;10.40;;;7.43;;
3274;SDS011;1649;53.672;10.064;2023-07-02T01:03:31;16.70;;;7.37;;
3274;SDS011;1649;53.672;10.064;2023-07-02T01:05:58;12.13;;;7.50;;
3274;SDS011;1649;53.672;10.064;2023-07-02T01:08:28;12.53;;;6.90;;
3274;SDS011;1649;53.672;10.064;2023-07-02T01:10:53;14.37;;;7.10;;
3274;SDS011;1649;53.672;10.064;2023-07-02T01:13:19;12.00;;;6.67;;
3274;SDS011;1649;53.672;10.064;2023-07-02T01:15:46;13.30;;;6.87;;
3274;SDS011;1649;53.672;10.064;2023-07-02T01:18:13;11.07;;;6.60;;
3274;SDS011;1649;53.672;10.064;2023-07-02T01:20:40;11.90;;;7.07;;
3274;SDS011;1649;53.672;10.064;2023-07-02T01:23:07;13.10;;;7.20;;
3274;SDS011;1649;53.672;10.064;2023-07-02T01:25:34;11.90;;;7.17;;
3274;SDS011;1649;53.672;10.064;2023-07-02T01:28:01;10.50;;;6.80;;
3274;SDS011;1649;53.672;10.064;2023-07-02T01:30:27;13.73;;;7.20;;
3274;SDS011;1649;53.672;10.064;2023-07-02T01:32:52;13.67;;;6.93;;
3274;SDS011;1649;53.672;10.064;2023-07-02T01:35:18;11.40;;;7.10;;
3274;SDS011;1649;53.672;10.064;2023-07-02T01:37:44;11.30;;;6.80;;
3274;SDS011;1649;53.672;10.064;2023-07-02T01:40:09;10.77;;;7.37;;
3274;SDS011;1649;53.672;10.064;2023-07-02T01:42:35;14.10;;;7.23;;
3274;SDS011;1649;53.672;10.064;2023-07-02T01:45:01;14.83;;;8.13;;
3274;SDS011;1649;53.672;10.064;2023-07-02T01:47:26;9.00;;;6.70;;
3274;SDS011;1649;53.672;10.064;2023-07-02T01:49:52;12.07;;;7.30;;
3274;SDS011;1649;53.672;10.064;2023-07-02T01:52:17;10.77;;;7.50;;
3274;SDS011;1649;53.672;10.064;2023-07-02T01:54:43;11.70;;;7.30;;
3274;SDS011;1649;53.672;10.064;2023-07-02T01:57:09;15.73;;;7.77;;
3274;SDS011;1649;53.672;10.064;2023-07-02T01:59:35;13.87;;;7.80;;
3274;SDS011;1649;53.672;10.064;2023-07-02T02:02:00;14.93;;;7.00;;
3274;SDS011;1649;53.672;10.064;2023-07-02T02:04:26;10.80;;;6.90;;
3274;SDS011;1649;53.672;10.064;2023-07-02T02:06:51;12.30;;;7.30;;
3274;SDS011;1649;53.672;10.064;2023-07-02T02:09:17;11.30;;;8.60;;
3274;SDS011;1649;53.672;10.064;2023-07-02T02:11:44;13.63;;;7.40;;
3274;SDS011;1649;53.672;10.064;2023-07-02T02:14:12;13.47;;;7.80;;
3274;SDS011;1649;53.672;10.064;2023-07-02T02:16:38;17.13;;;8.43;;
3274;SDS011;1649;53.672;10.064;2023-07-02T02:19:03;15.93;;;8.77;;
3274;SDS011;1649;53.672;10.064;2023-07-02T02:21:29;11.17;;;8.50;;
3274;SDS011;1649;53.672;10.064;2023-07-02T02:23:55;15.30;;;7.33;;
3274;SDS011;1649;53.672;10.064;2023-07-02T02:26:21;18.10;;;8.87;;
3274;SDS011;1649;53.672;10.064;2023-07-02T02:28:47;12.07;;;8.40;;
3274;SDS011;1649;53.672;10.064;2023-07-02T02:31:13;13.33;;;8.17;;
3274;SDS011;1649;53.672;10.064;2023-07-02T02:33:39;16.57;;;8.03;;
3274;SDS011;1649;53.672;10.064;2023-07-02T02:36:05;12.30;;;8.30;;
3274;SDS011;1649;53.672;10.064;2023-07-02T02:38:30;12.00;;;7.60;;
3274;SDS011;1649;53.672;10.064;2023-07-02T02:40:56;16.97;;;8.43;;
3274;SDS011;1649;53.672;10.064;2023-07-02T02:43:21;13.00;;;8.43;;
3274;SDS011;1649;53.672;10.064;2023-07-02T02:45:47;15.00;;;8.53;;
3274;SDS011;1649;53.672;10.064;2023-07-02T02:48:13;14.53;;;8.00;;
3274;SDS011;1649;53.672;10.064;2023-07-02T02:50:38;17.13;;;8.17;;
3274;SDS011;1649;53.672;10.064;2023-07-02T02:53:06;20.67;;;8.13;;
3274;SDS011;1649;53.672;10.064;2023-07-02T02:55:32;13.90;;;7.93;;
3274;SDS011;1649;53.672;10.064;2023-07-02T02:57:57;13.47;;;7.93;;
3274;SDS011;1649;53.672;10.064;2023-07-02T03:00:23;17.07;;;8.20;;
3274;SDS011;1649;53.672;10.064;2023-07-02T03:02:48;18.50;;;8.40;;
3274;SDS011;1649;53.672;10.064;2023-07-02T03:05:14;14.80;;;7.87;;
3274;SDS011;1649;53.672;10.064;2023-07-02T03:07:41;16.13;;;8.90;;
3274;SDS011;1649;53.672;10.064;2023-07-02T03:10:07;14.27;;;7.90;;
3274;SDS011;1649;53.672;10.064;2023-07-02T03:12:33;13.57;;;8.10;;
3274;SDS011;1649;53.672;10.064;2023-07-02T03:14:58;13.27;;;7.80;;
3274;SDS011;1649;53.672;10.064;2023-07-02T03:17:24;15.00;;;8.23;;
3274;SDS011;1649;53.672;10.064;2023-07-02T03:19:49;14.23;;;9.17;;
3274;SDS011;1649;53.672;10.064;2023-07-02T03:22:15;14.93;;;8.10;;
3274;SDS011;1649;53.672;10.064;2023-07-02T03:24:41;15.07;;;8.90;;
3274;SDS011;1649;53.672;10.064;2023-07-02T03:27:06;14.37;;;7.90;;
3274;SDS011;1649;53.672;10.064;2023-07-02T03:29:33;16.50;;;8.30;;
3274;SDS011;1649;53.672;10.064;2023-07-02T03:31:59;16.07;;;8.37;;
3274;SDS011;1649;53.672;10.064;2023-07-02T03:34:25;11.60;;;7.60;;
3274;SDS011;1649;53.672;10.064;2023-07-02T03:36:51;14.50;;;6.83;;
3274;SDS011;1649;53.672;10.064;2023-07-02T03:39:16;12.60;;;7.73;;
3274;SDS011;1649;53.672;10.064;2023-07-02T03:41:42;14.20;;;8.70;;
3274;SDS011;1649;53.672;10.064;2023-07-02T03:44:08;13.17;;;7.73;;
3274;SDS011;1649;53.672;10.064;2023-07-02T03:46:34;15.43;;;8.53;;
3274;SDS011;1649;53.672;10.064;2023-07-02T03:49:00;19.27;;;8.47;;
3274;SDS011;1649;53.672;10.064;2023-07-02T03:51:25;13.60;;;8.00;;
3274;SDS011;1649;53.672;10.064;2023-07-02T03:53:51;17.43;;;7.60;;
3274;SDS011;1649;53.672;10.064;2023-07-02T03:56:16;12.73;;;8.40;;
3274;SDS011;1649;53.672;10.064;2023-07-02T03:58:42;13.20;;;7.40;;
3274;SDS011;1649;53.672;10.064;2023-07-02T04:01:08;11.73;;;7.03;;
3274;SDS011;1649;53.672;10.064;2023-07-02T04:03:33;18.03;;;7.00;;
3274;SDS011;1649;53.672;10.064;2023-07-02T04:05:59;14.37;;;7.80;;
3274;SDS011;1649;53.672;10.064;2023-07-02T04:08:25;17.00;;;8.03;;
3274;SDS011;1649;53.672;10.064;2023-07-02T04:10:50;15.20;;;7.63;;
3274;SDS011;1649;53.672;10.064;2023-07-02T04:13:16;15.80;;;7.77;;
3274;SDS011;1649;53.672;10.064;2023-07-02T04:15:41;14.90;;;7.10;;
3274;SDS011;1649;53.672;10.064;2023-07-02T04:18:07;13.73;;;7.33;;
3274;SDS011;1649;53.672;10.064;2023-07-02T04:20:33;16.90;;;7.87;;
3274;SDS011;1649;53.672;10.064;2023-07-02T04:22:58;25.03;;;8.83;;
3274;SDS011;1649;53.672;10.064;2023-07-02T04:25:24;16.20;;;8.33;;
3274;SDS011;1649;53.672;10.064;2023-07-02T04:27:49;15.30;;;7.23;;
3274;SDS011;1649;53.672;10.064;2023-07-02T04:30:15;18.80;;;7.70;;
3274;SDS011;1649;53.672;10.064;2023-07-02T04:32:41;23.60;;;8.00;;
3274;SDS011;1649;53.672;10.064;2023-07-02T04:35:07;17.50;;;7.40;;
3274;SDS011;1649;53.672;10.064;2023-07-02T04:37:33;13.33;;;6.30;;
3274;SDS011;1649;53.672;10.064;2023-07-02T04:39:59;15.80;;;6.80;;
3274;SDS011;1649;53.672;10.064;2023-07-02T04:42:25;17.77;;;7.90;;
3274;SDS011;1649;53.672;10.064;2023-07-02T04:44:52;17.93;;;8.20;;
3274;SDS011;1649;53.672;10.064;2023-07-02T04:47:19;16.30;;;7.90;;
3274;SDS011;1649;53.672;10.064;2023-07-02T04:49:44;14.57;;;7.40;;
3274;SDS011;1649;53.672;10.064;2023-07-02T04:52:10;14.07;;;6.97;;
3274;SDS011;1649;53.672;10.064;2023-07-02T04:54:35;18.93;;;7.10;;
3274;SDS011;1649;53.672;10.064;2023-07-02T04:57:01;15.93;;;7.00;;
3274;SDS011;1649;53.672;10.064;2023-07-02T04:59:27;15.37;;;7.17;;
3274;SDS011;1649;53.672;10.064;2023-07-02T05:01:52;15.00;;;7.10;;
3274;SDS011;1649;53.672;10.064;2023-07-02T05:04:17;17.47;;;7.33;;
3274;SDS011;1649;53.672;10.064;2023-07-02T05:06:43;18.00;;;7.73;;
3274;SDS011;1649;53.672;10.064;2023-07-02T05:09:08;18.73;;;7.60;;
3274;SDS011;1649;53.672;10.064;2023-07-02T05:11:34;20.17;;;7.90;;
3274;SDS011;1649;53.672;10.064;2023-07-02T05:13:59;19.90;;;7.60;;
3274;SDS011;1649;53.672;10.064;2023-07-02T05:16:25;23.77;;;7.70;;
3274;SDS011;1649;53.672;10.064;2023-07-02T05:18:50;20.60;;;7.10;;
3274;SDS011;1649;53.672;10.064;2023-07-02T05:21:19;18.27;;;6.87;;
3274;SDS011;1649;53.672;10.064;2023-07-02T05:23:45;18.77;;;6.90;;
3274;SDS011;1649;53.672;10.064;2023-07-02T05:26:12;16.57;;;7.37;;
3274;SDS011;1649;53.672;10.064;2023-07-02T05:28:37;18.87;;;7.97;;
3274;SDS011;1649;53.672;10.064;2023-07-02T05:31:03;20.07;;;7.63;;
3274;SDS011;1649;53.672;10.064;2023-07-02T05:33:28;14.70;;;7.60;;
3274;SDS011;1649;53.672;10.064;2023-07-02T05:35:56;16.80;;;7.23;;
3274;SDS011;1649;53.672;10.064;2023-07-02T05:38:21;19.60;;;8.27;;
3274;SDS011;1649;53.672;10.064;2023-07-02T05:40:47;18.43;;;7.13;;
3274;SDS011;1649;53.672;10.064;2023-07-02T05:43:12;26.63;;;7.93;;
3274;SDS011;1649;53.672;10.064;2023-07-02T05:45:38;17.43;;;7.80;;
3274;SDS011;1649;53.672;10.064;2023-07-02T05:48:03;23.87;;;7.50;;
3274;SDS011;1649;53.672;10.064;2023-07-02T05:50:29;19.73;;;7.60;;
3274;SDS011;1649;53.672;10.064;2023-07-02T05:52:54;22.83;;;8.00;;
3274;SDS011;1649;53.672;10.064;2023-07-02T05:55:20;21.93;;;7.60;;
3274;SDS011;1649;53.672;10.064;2023-07-02T05:57:45;20.97;;;8.37;;
3274;SDS011;1649;53.672;10.064;2023-07-02T06:00:11;18.90;;;7.60;;
3274;SDS011;1649;53.672;10.064;2023-07-02T06:02:37;26.10;;;8.50;;
3274;SDS011;1649;53.672;10.064;2023-07-02T06:05:03;22.03;;;8.67;;
3274;SDS011;1649;53.672;10.064;2023-07-02T06:07:29;20.23;;;7.90;;
3274;SDS011;1649;53.672;10.064;2023-07-02T06:09:54;27.87;;;8.10;;
3274;SDS011;1649;53.672;10.064;2023-07-02T06:12:20;19.63;;;8.20;;
3274;SDS011;1649;53.672;10.064;2023-07-02T06:14:46;18.00;;;8.33;;
3274;SDS011;1649;53.672;10.064;2023-07-02T06:17:12;24.50;;;7.80;;
3274;SDS011;1649;53.672;10.064;2023-07-02T06:19:38;23.40;;;8.70;;
3274;SDS011;1649;53.672;10.064;2023-07-02T06:22:03;25.17;;;9.50;;
3274;SDS011;1649;53.672;10.064;2023-07-02T06:24:29;21.53;;;7.93;;
3274;SDS011;1649;53.672;10.064;2023-07-02T06:26:54;24.07;;;8.17;;
3274;SDS011;1649;53.672;10.064;2023-07-02T06:29:21;19.40;;;7.50;;
3274;SDS011;1649;53.672;10.064;2023-07-02T06:31:47;17.37;;;7.40;;
3274;SDS011;1649;53.672;10.064;2023-07-02T06:34:12;19.60;;;7.67;;
3274;SDS011;1649;53.672;10.064;2023-07-02T06:36:38;23.43;;;8.27;;
3274;SDS011;1649;53.672;10.064;2023-07-02T06:39:04;21.67;;;7.97;;
3274;SDS011;1649;53.672;10.064;2023-07-02T06:41:29;22.17;;;8.03;;
3274;SDS011;1649;53.672;10.064;2023-07-02T06:43:55;15.93;;;7.20;;
3274;SDS011;1649;53.672;10.064;2023-07-02T06:46:20;21.47;;;7.77;;
3274;SDS011;1649;53.672;10.064;2023-07-02T06:48:46;18.97;;;8.43;;
3274;SDS011;1649;53.672;10.064;2023-07-02T06:51:11;21.90;;;8.20;;
3274;SDS011;1649;53.672;10.064;2023-07-02T06:53:39;20.60;;;8.60;;
3274;SDS011;1649;53.672;10.064;2023-07-02T06:56:07;19.90;;;7.70;;
3274;SDS011;1649;53.672;10.064;2023-07-02T06:58:34;19.93;;;7.93;;
3274;SDS011;1649;53.672;10.064;2023-07-02T07:01:00;17.40;;;7.50;;
3274;SDS011;1649;53.672;10.064;2023-07-02T07:03:25;17.10;;;7.33;;
3274;SDS011;1649;53.672;10.064;2023-07-02T07:05:51;17.30;;;6.40;;
3274;SDS011;1649;53.672;10.064;2023-07-02T07:08:17;19.87;;;7.10;;
3274;SDS011;1649;53.672;10.064;2023-07-02T07:10:42;24.00;;;8.00;;
3274;SDS011;1649;53.672;10.064;2023-07-02T07:13:10;21.67;;;7.60;;
3274;SDS011;1649;53.672;10.064;2023-07-02T07:15:36;18.17;;;7.83;;
3274;SDS011;1649;53.672;10.064;2023-07-02T07:18:01;19.00;;;8.20;;
3274;SDS011;1649;53.672;10.064;2023-07-02T07:20:27;16.87;;;7.80;;
3274;SDS011;1649;53.672;10.064;2023-07-02T07:22:53;21.80;;;8.17;;
3274;SDS011;1649;53.672;10.064;2023-07-02T07:25:18;24.73;;;8.37;;
3274;SDS011;1649;53.672;10.064;2023-07-02T07:27:44;19.67;;;8.37;;
3274;SDS011;1649;53.672;10.064;2023-07-02T07:30:10;19.43;;;7.83;;
3274;SDS011;1649;53.672;10.064;2023-07-02T07:32:36;25.63;;;9.37;;
3274;SDS011;1649;53.672;10.064;2023-07-02T07:35:01;20.83;;;8.20;;
3274;SDS011;1649;53.672;10.064;2023-07-02T07:37:27;20.33;;;8.23;;
3274;SDS011;1649;53.672;10.064;2023-07-02T07:39:52;21.63;;;8.70;;
3274;SDS011;1649;53.672;10.064;2023-07-02T07:42:18;19.20;;;8.70;;
3274;SDS011;1649;53.672;10.064;2023-07-02T07:44:46;18.83;;;8.60;;
3274;SDS011;1649;53.672;10.064;2023-07-02T07:47:12;21.03;;;8.17;;
3274;SDS011;1649;53.672;10.064;2023-07-02T07:49:37;20.50;;;8.00;;
3274;SDS011;1649;53.672;10.064;2023-07-02T07:52:03;18.53;;;7.60;;
3274;SDS011;1649;53.672;10.064;2023-07-02T07:54:31;21.77;;;8.60;;
3274;SDS011;1649;53.672;10.064;2023-07-02T07:56:57;17.20;;;7.77;;
3274;SDS011;1649;53.672;10.064;2023-07-02T07:59:22;16.30;;;7.40;;
3274;SDS011;1649;53.672;10.064;2023-07-02T08:01:48;20.13;;;7.77;;
3274;SDS011;1649;53.672;10.064;2023-07-02T08:04:13;17.70;;;6.63;;
3274;SDS011;1649;53.672;10.064;2023-07-02T08:06:39;15.93;;;7.10;;
3274;SDS011;1649;53.672;10.064;2023-07-02T08:09:04;15.97;;;7.00;;
3274;SDS011;1649;53.672;10.064;2023-07-02T08:11:30;18.10;;;7.03;;
3274;SDS011;1649;53.672;10.064;2023-07-02T08:13:55;15.50;;;7.13;;
3274;SDS011;1649;53.672;10.064;2023-07-02T08:16:21;15.83;;;7.50;;
3274;SDS011;1649;53.672;10.064;2023-07-02T08:18:46;15.70;;;6.67;;
3274;SDS011;1649;53.672;10.064;2023-07-02T08:21:12;16.50;;;6.77;;
3274;SDS011;1649;53.672;10.064;2023-07-02T08:23:37;17.97;;;7.37;;
3274;SDS011;1649;53.672;10.064;2023-07-02T08:26:03;16.97;;;6.93;;
3274;SDS011;1649;53.672;10.064;2023-07-02T08:28:28;15.00;;;7.13;;
3274;SDS011;1649;53.672;10.064;2023-07-02T08:30:54;13.73;;;6.77;;
3274;SDS011;1649;53.672;10.064;2023-07-02T08:33:20;18.40;;;6.57;;
3274;SDS011;1649;53.672;10.064;2023-07-02T08:35:45;13.00;;;6.53;;
3274;SDS011;1649;53.672;10.064;2023-07-02T08:38:11;18.63;;;7.17;;
3274;SDS011;1649;53.672;10.064;2023-07-02T08:40:37;17.00;;;7.13;;
3274;SDS011;1649;53.672;10.064;2023-07-02T08:43:02;17.20;;;7.50;;
3274;SDS011;1649;53.672;10.064;2023-07-02T08:45:28;20.00;;;7.37;;
3274;SDS011;1649;53.672;10.064;2023-07-02T08:47:54;15.77;;;6.90;;
3274;SDS011;1649;53.672;10.064;2023-07-02T08:50:21;15.63;;;7.67;;
3274;SDS011;1649;53.672;10.064;2023-07-02T08:52:48;18.27;;;7.13;;
3274;SDS011;1649;53.672;10.064;2023-07-02T08:55:13;16.70;;;7.40;;
3274;SDS011;1649;53.672;10.064;2023-07-02T08:57:39;20.50;;;7.80;;
3274;SDS011;1649;53.672;10.064;2023-07-02T09:00:14;14.97;;;7.50;;
3274;SDS011;1649;53.672;10.064;2023-07-02T09:02:40;16.43;;;6.73;;
3274;SDS011;1649;53.672;10.064;2023-07-02T09:05:05;13.30;;;5.87;;
3274;SDS011;1649;53.672;10.064;2023-07-02T09:07:31;11.67;;;6.27;;
3274;SDS011;1649;53.672;10.064;2023-07-02T09:09:57;14.00;;;6.07;;
3274;SDS011;1649;53.672;10.064;2023-07-02T09:14:59;13.90;;;6.20;;
3274;SDS011;1649;53.672;10.064;2023-07-02T09:17:29;12.87;;;5.37;;
3274;SDS011;1649;53.672;10.064;2023-07-02T09:19:55;10.87;;;5.00;;
3274;SDS011;1649;53.672;10.064;2023-07-02T09:22:21;12.77;;;5.03;;
3274;SDS011;1649;53.672;10.064;2023-07-02T09:24:56;12.30;;;5.67;;
3274;SDS011;1649;53.672;10.064;2023-07-02T09:27:35;16.37;;;5.30;;
3274;SDS011;1649;53.672;10.064;2023-07-02T09:30:05;16.50;;;6.20;;
3274;SDS011;1649;53.672;10.064;2023-07-02T09:32:31;14.63;;;5.60;;
3274;SDS011;1649;53.672;10.064;2023-07-02T09:34:57;12.40;;;4.50;;
3274;SDS011;1649;53.672;10.064;2023-07-02T09:37:23;15.10;;;5.00;;
3274;SDS011;1649;53.672;10.064;2023-07-02T09:39:49;13.70;;;5.57;;
3274;SDS011;1649;53.672;10.064;2023-07-02T09:42:19;16.52;;;5.50;;
3274;SDS011;1649;53.672;10.064;2023-07-02T09:44:46;10.73;;;5.50;;
3274;SDS011;1649;53.672;10.064;2023-07-02T09:47:12;16.30;;;6.07;;
3274;SDS011;1649;53.672;10.064;2023-07-02T09:49:41;12.10;;;5.70;;
3274;SDS011;1649;53.672;10.064;2023-07-02T09:52:10;14.57;;;5.60;;
3274;SDS011;1649;53.672;10.064;2023-07-02T09:54:37;16.30;;;5.93;;
3274;SDS011;1649;53.672;10.064;2023-07-02T09:57:03;12.70;;;5.80;;
3274;SDS011;1649;53.672;10.064;2023-07-02T09:59:31;13.57;;;6.13;;
3274;SDS011;1649;53.672;10.064;2023-07-02T10:01:56;12.10;;;6.07;;
3274;SDS011;1649;53.672;10.064;2023-07-02T10:04:23;15.37;;;5.57;;
3274;SDS011;1649;53.672;10.064;2023-07-02T10:06:49;12.53;;;4.60;;
3274;SDS011;1649;53.672;10.064;2023-07-02T10:09:19;13.17;;;5.47;;
3274;SDS011;1649;53.672;10.064;2023-07-02T10:11:45;11.70;;;5.57;;
3274;SDS011;1649;53.672;10.064;2023-07-02T10:14:11;12.70;;;4.97;;
3274;SDS011;1649;53.672;10.064;2023-07-02T10:16:50;14.73;;;5.13;;
3274;SDS011;1649;53.672;10.064;2023-07-02T10:19:19;10.97;;;4.57;;
3274;SDS011;1649;53.672;10.064;2023-07-02T10:21:45;8.47;;;4.30;;
3274;SDS011;1649;53.672;10.064;2023-07-02T10:24:12;11.20;;;4.23;;
3274;SDS011;1649;53.672;10.064;2023-07-02T10:26:39;8.53;;;3.47;;
3274;SDS011;1649;53.672;10.064;2023-07-02T10:29:18;9.80;;;3.40;;
3274;SDS011;1649;53.672;10.064;2023-07-02T10:31:48;9.83;;;3.97;;
3274;SDS011;1649;53.672;10.064;2023-07-02T10:34:14;9.33;;;4.03;;
3274;SDS011;1649;53.672;10.064;2023-07-02T10:36:39;8.40;;;4.43;;
3274;SDS011;1649;53.672;10.064;2023-07-02T10:39:05;10.70;;;4.28;;
3274;SDS011;1649;53.672;10.064;2023-07-02T10:41:30;11.00;;;3.90;;
3274;SDS011;1649;53.672;10.064;2023-07-02T10:44:08;10.97;;;3.47;;
3274;SDS011;1649;53.672;10.064;2023-07-02T10:46:42;8.67;;;4.07;;
3274;SDS011;1649;53.672;10.064;2023-07-02T10:49:11;10.07;;;3.77;;
3274;SDS011;1649;53.672;10.064;2023-07-02T10:51:38;10.83;;;3.80;;
3274;SDS011;1649;53.672;10.064;2023-07-02T10:54:03;14.83;;;3.83;;
3274;SDS011;1649;53.672;10.064;2023-07-02T10:56:30;16.10;;;3.87;;
3274;SDS011;1649;53.672;10.064;2023-07-02T10:58:56;8.70;;;3.80;;
3274;SDS011;1649;53.672;10.064;2023-07-02T11:01:25;10.50;;;3.37;;
3274;SDS011;1649;53.672;10.064;2023-07-02T11:03:59;10.57;;;3.27;;
3274;SDS011;1649;53.672;10.064;2023-07-02T11:06:30;6.13;;;2.80;;
3274;SDS011;1649;53.672;10.064;2023-07-02T11:09:00;7.60;;;2.90;;
3274;SDS011;1649;53.672;10.064;2023-07-02T11:11:26;8.70;;;3.27;;
3274;SDS011;1649;53.672;10.064;2023-07-02T11:13:52;8.40;;;2.83;;
3274;SDS011;1649;53.672;10.064;2023-07-02T11:16:19;8.70;;;2.83;;
3274;SDS011;1649;53.672;10.064;2023-07-02T11:18:51;8.73;;;2.80;;
3274;SDS011;1649;53.672;10.064;2023-07-02T11:21:17;8.53;;;3.20;;
3274;SDS011;1649;53.672;10.064;2023-07-02T11:23:43;8.00;;;3.07;;
3274;SDS011;1649;53.672;10.064;2023-07-02T11:26:08;8.50;;;3.00;;
3274;SDS011;1649;53.672;10.064;2023-07-02T11:28:34;10.00;;;3.47;;
3274;SDS011;1649;53.672;10.064;2023-07-02T11:31:00;7.90;;;2.83;;
3274;SDS011;1649;53.672;10.064;2023-07-02T11:33:37;13.63;;;3.90;;
3274;SDS011;1649;53.672;10.064;2023-07-02T11:36:04;7.73;;;3.30;;
3274;SDS011;1649;53.672;10.064;2023-07-02T11:38:30;10.10;;;3.80;;
3274;SDS011;1649;53.672;10.064;2023-07-02T11:40:56;8.27;;;3.90;;
3274;SDS011;1649;53.672;10.064;2023-07-02T11:43:21;12.43;;;4.97;;
3274;SDS011;1649;53.672;10.064;2023-07-02T11:45:47;11.73;;;4.30;;
3274;SDS011;1649;53.672;10.064;2023-07-02T11:48:12;8.37;;;3.90;;
3274;SDS011;1649;53.672;10.064;2023-07-02T11:50:38;7.83;;;3.33;;
3274;SDS011;1649;53.672;10.064;2023-07-02T11:53:03;10.63;;;3.77;;
3274;SDS011;1649;53.672;10.064;2023-07-02T11:55:29;10.43;;;3.80;;
3274;SDS011;1649;53.672;10.064;2023-07-02T11:57:54;7.77;;;3.20;;
3274;SDS011;1649;53.672;10.064;2023-07-02T12:00:20;8.37;;;3.50;;
3274;SDS011;1649;53.672;10.064;2023-07-02T12:02:45;8.93;;;3.57;;
3274;SDS011;1649;53.672;10.064;2023-07-02T12:05:11;11.10;;;3.90;;
3274;SDS011;1649;53.672;10.064;2023-07-02T12:07:36;9.83;;;3.40;;
3274;SDS011;1649;53.672;10.064;2023-07-02T12:10:02;13.07;;;3.90;;
3274;SDS011;1649;53.672;10.064;2023-07-02T12:12:27;12.17;;;4.07;;
3274;SDS011;1649;53.672;10.064;2023-07-02T12:14:53;11.80;;;4.10;;
3274;SDS011;1649;53.672;10.064;2023-07-02T12:17:18;14.83;;;4.13;;
3274;SDS011;1649;53.672;10.064;2023-07-02T12:19:44;10.37;;;3.83;;
3274;SDS011;1649;53.672;10.064;2023-07-02T12:22:10;9.03;;;4.07;;
3274;SDS011;1649;53.672;10.064;2023-07-02T12:24:36;9.43;;;3.37;;
3274;SDS011;1649;53.672;10.064;2023-07-02T12:27:01;9.57;;;3.50;;
3274;SDS011;1649;53.672;10.064;2023-07-02T12:29:27;8.07;;;3.23;;
3274;SDS011;1649;53.672;10.064;2023-07-02T12:31:53;9.83;;;3.30;;
3274;SDS011;1649;53.672;10.064;2023-07-02T12:34:18;9.90;;;3.13;;
3274;SDS011;1649;53.672;10.064;2023-07-02T12:36:44;12.40;;;3.63;;
3274;SDS011;1649;53.672;10.064;2023-07-02T12:39:09;10.83;;;3.10;;
3274;SDS011;1649;53.672;10.064;2023-07-02T12:41:35;10.30;;;3.83;;
3274;SDS011;1649;53.672;10.064;2023-07-02T12:44:00;11.03;;;2.90;;
3274;SDS011;1649;53.672;10.064;2023-07-02T12:46:26;8.57;;;3.23;;
3274;SDS011;1649;53.672;10.064;2023-07-02T12:48:51;13.30;;;3.30;;
3274;SDS011;1649;53.672;10.064;2023-07-02T12:51:17;10.20;;;3.30;;
3274;SDS011;1649;53.672;10.064;2023-07-02T12:53:42;12.47;;;3.00;;
3274;SDS011;1649;53.672;10.064;2023-07-02T12:56:08;7.20;;;3.13;;
3274;SDS011;1649;53.672;10.064;2023-07-02T12:58:33;10.60;;;3.10;;
3274;SDS011;1649;53.672;10.064;2023-07-02T13:00:59;8.73;;;2.40;;
3274;SDS011;1649;53.672;10.064;2023-07-02T13:03:24;7.97;;;3.07;;
3274;SDS011;1649;53.672;10.064;2023-07-02T13:05:50;9.83;;;3.07;;
3274;SDS011;1649;53.672;10.064;2023-07-02T13:08:15;7.90;;;2.50;;
3274;SDS011;1649;53.672;10.064;2023-07-02T13:10:41;8.60;;;3.03;;
3274;SDS011;1649;53.672;10.064;2023-07-02T13:13:07;6.47;;;2.33;;
3274;SDS011;1649;53.672;10.064;2023-07-02T13:15:32;6.57;;;2.63;;
3274;SDS011;1649;53.672;10.064;2023-07-02T13:17:59;8.33;;;2.60;;
3274;SDS011;1649;53.672;10.064;2023-07-02T13:20:25;8.97;;;2.80;;
3274;SDS011;1649;53.672;10.064;2023-07-02T13:22:50;6.57;;;2.60;;
3274;SDS011;1649;53.672;10.064;2023-07-02T13:25:16;8.43;;;2.57;;
3274;SDS011;1649;53.672;10.064;2023-07-02T13:27:41;7.20;;;2.17;;
3274;SDS011;1649;53.672;10.064;2023-07-02T13:30:07;9.00;;;2.30;;
3274;SDS011;1649;53.672;10.064;2023-07-02T13:32:33;11.23;;;2.53;;
3274;SDS011;1649;53.672;10.064;2023-07-02T13:34:58;8.63;;;2.27;;
3274;SDS011;1649;53.672;10.064;2023-07-02T13:37:24;9.80;;;2.40;;
3274;SDS011;1649;53.672;10.064;2023-07-02T13:39:49;12.67;;;2.37;;
3274;SDS011;1649;53.672;10.064;2023-07-02T13:42:15;11.70;;;2.50;;
3274;SDS011;1649;53.672;10.064;2023-07-02T13:44:41;10.40;;;2.40;;
3274;SDS011;1649;53.672;10.064;2023-07-02T13:47:07;9.80;;;2.53;;
3274;SDS011;1649;53.672;10.064;2023-07-02T13:49:32;7.50;;;2.50;;
3274;SDS011;1649;53.672;10.064;2023-07-02T13:51:58;6.30;;;1.90;;
3274;SDS011;1649;53.672;10.064;2023-07-02T13:54:24;11.83;;;2.80;;
3274;SDS011;1649;53.672;10.064;2023-07-02T13:56:50;7.03;;;2.70;;
3274;SDS011;1649;53.672;10.064;2023-07-02T13:59:16;7.93;;;2.00;;
3274;SDS011;1649;53.672;10.064;2023-07-02T14:01:42;9.80;;;2.33;;
3274;SDS011;1649;53.672;10.064;2023-07-02T14:04:08;6.93;;;2.40;;
3274;SDS011;1649;53.672;10.064;2023-07-02T14:06:34;5.53;;;1.87;;
3274;SDS011;1649;53.672;10.064;2023-07-02T14:09:00;10.83;;;2.90;;
3274;SDS011;1649;53.672;10.064;2023-07-02T14:11:25;7.80;;;3.10;;
3274;SDS011;1649;53.672;10.064;2023-07-02T14:13:52;8.73;;;2.57;;
3274;SDS011;1649;53.672;10.064;2023-07-02T14:16:18;6.97;;;2.50;;
3274;SDS011;1649;53.672;10.064;2023-07-02T14:18:44;8.07;;;3.20;;
3274;SDS011;1649;53.672;10.064;2023-07-02T14:21:09;8.57;;;2.67;;
3274;SDS011;1649;53.672;10.064;2023-07-02T14:23:35;6.97;;;2.37;;
3274;SDS011;1649;53.672;10.064;2023-07-02T14:26:00;9.83;;;2.97;;
3274;SDS011;1649;53.672;10.064;2023-07-02T14:28:26;7.03;;;2.50;;
3274;SDS011;1649;53.672;10.064;2023-07-02T14:31:00;6.83;;;2.43;;
3274;SDS011;1649;53.672;10.064;2023-07-02T14:33:28;5.60;;;2.47;;
3274;SDS011;1649;53.672;10.064;2023-07-02T14:35:55;7.33;;;2.50;;
3274;SDS011;1649;53.672;10.064;2023-07-02T14:38:21;6.33;;;2.13;;
3274;SDS011;1649;53.672;10.064;2023-07-02T14:40:49;6.67;;;2.17;;
3274;SDS011;1649;53.672;10.064;2023-07-02T14:43:16;7.33;;;2.47;;
3274;SDS011;1649;53.672;10.064;2023-07-02T14:45:49;8.27;;;2.23;;